Time,TemperatureF,DewpointF,PressureIn,WindDirection,WindDirectionDegrees,WindSpeedMPH,WindSpeedGustMPH,Humidity,HourlyPrecipIn,Conditions,Clouds,dailyrainin,SoftwareType,DateUTC
2013-09-19 00:00:00,66.9,63.6,30.11,SSE,148,0.0,1.0,89,0.00,,,0.00,VWS V14.01,2013-09-19 04:00:00,
2013-09-19 00:01:00,66.9,63.6,30.11,SSE,148,0.0,1.0,89,0.00,,,0.00,VWS V14.01,2013-09-19 04:01:00,
2013-09-19 00:06:00,66.9,63.6,30.11,SSE,148,0.0,1.0,89,0.00,,,0.00,VWS V14.01,2013-09-19 04:06:00,
2013-09-19 00:10:00,66.8,63.5,30.11,SSE,148,0.0,1.0,89,0.00,,,0.00,VWS V14.01,2013-09-19 04:10:00,
2013-09-19 00:11:00,66.8,63.5,30.11,SSE,148,0.0,1.0,89,0.00,,,0.00,VWS V14.01,2013-09-19 04:11:00,
2013-09-19 00:16:00,66.8,63.5,30.10,SSE,148,0.0,1.0,89,0.00,,,0.00,VWS V14.01,2013-09-19 04:16:00,
2013-09-19 00:20:00,66.8,63.5,30.10,SSE,148,0.0,1.0,89,0.00,,,0.00,VWS V14.01,2013-09-19 04:20:00,
2013-09-19 00:21:00,66.8,63.5,30.10,SSE,148,0.0,1.0,89,0.00,,,0.00,VWS V14.01,2013-09-19 04:21:00,
2013-09-19 00:26:00,66.6,63.3,30.10,SSE,148,0.0,1.0,89,0.00,,,0.00,VWS V14.01,2013-09-19 04:26:00,
2013-09-19 00:30:00,66.6,63.3,30.10,SSE,148,0.0,1.0,89,0.00,,,0.00,VWS V14.01,2013-09-19 04:30:00,
2013-09-19 00:31:00,66.6,63.3,30.10,SSE,148,0.0,1.0,89,0.00,,,0.00,VWS V14.01,2013-09-19 04:31:00,
2013-09-19 00:36:00,66.4,63.4,30.10,SSE,148,0.0,1.0,90,0.00,,,0.00,VWS V14.01,2013-09-19 04:36:00,
2013-09-19 00:40:00,66.4,63.4,30.10,SSE,148,0.0,1.0,90,0.00,,,0.00,VWS V14.01,2013-09-19 04:40:00,
2013-09-19 00:41:00,66.4,63.4,30.10,SSE,148,0.0,1.0,90,0.00,,,0.00,VWS V14.01,2013-09-19 04:41:00,
2013-09-19 00:46:00,66.3,63.3,30.10,SSE,148,0.0,1.0,90,0.00,,,0.00,VWS V14.01,2013-09-19 04:46:00,
2013-09-19 00:50:00,66.3,63.3,30.10,SSE,148,0.0,1.0,90,0.00,,,0.00,VWS V14.01,2013-09-19 04:50:00,
2013-09-19 00:51:00,66.3,63.3,30.10,SSE,148,0.0,1.0,90,0.00,,,0.00,VWS V14.01,2013-09-19 04:51:00,
2013-09-19 00:56:00,66.1,63.1,30.10,SSE,148,0.0,1.0,90,0.00,,,0.00,VWS V14.01,2013-09-19 04:56:00,
2013-09-19 01:00:00,66.1,63.1,30.10,SSE,148,0.0,1.0,90,0.00,,,0.00,VWS V14.01,2013-09-19 05:00:00,
2013-09-19 01:01:00,66.1,63.1,30.10,SSE,148,0.0,1.0,90,0.00,,,0.00,VWS V14.01,2013-09-19 05:01:00,
2013-09-19 01:06:00,66.0,63.3,30.10,SSE,148,0.0,1.0,91,0.00,,,0.00,VWS V14.01,2013-09-19 05:06:00,
2013-09-19 01:10:00,66.0,63.3,30.10,SSE,148,0.0,1.0,91,0.00,,,0.00,VWS V14.01,2013-09-19 05:10:00,
2013-09-19 01:11:00,66.0,63.3,30.10,SSE,148,0.0,1.0,91,0.00,,,0.00,VWS V14.01,2013-09-19 05:11:00,
2013-09-19 01:16:00,66.0,63.3,30.10,SSE,148,0.0,1.0,91,0.00,,,0.00,VWS V14.01,2013-09-19 05:16:00,
2013-09-19 01:20:00,65.8,63.1,30.10,SSE,148,0.0,1.0,91,0.00,,,0.00,VWS V14.01,2013-09-19 05:20:00,
2013-09-19 01:21:00,65.8,63.1,30.10,SSE,148,0.0,1.0,91,0.00,,,0.00,VWS V14.01,2013-09-19 05:21:00,
2013-09-19 01:26:00,65.8,63.1,30.10,SSE,148,0.0,1.0,91,0.00,,,0.00,VWS V14.01,2013-09-19 05:26:00,
2013-09-19 01:30:00,65.8,63.1,30.10,SSE,148,0.0,1.0,91,0.00,,,0.00,VWS V14.01,2013-09-19 05:30:00,
2013-09-19 01:32:00,65.8,63.1,30.10,SSE,148,0.0,1.0,91,0.00,,,0.00,VWS V14.01,2013-09-19 05:32:00,
2013-09-19 01:37:00,65.6,62.9,30.10,SSE,148,0.0,1.0,91,0.00,,,0.00,VWS V14.01,2013-09-19 05:37:00,
2013-09-19 01:40:00,65.6,62.9,30.10,SSE,148,0.0,1.0,91,0.00,,,0.00,VWS V14.01,2013-09-19 05:40:00,
2013-09-19 01:42:00,65.6,62.9,30.10,SSE,148,0.0,1.0,91,0.00,,,0.00,VWS V14.01,2013-09-19 05:42:00,
2013-09-19 01:47:00,65.6,63.2,30.10,SSE,148,0.0,1.0,92,0.00,,,0.00,VWS V14.01,2013-09-19 05:47:00,
2013-09-19 01:50:00,65.6,63.2,30.10,SSE,148,0.0,1.0,92,0.00,,,0.00,VWS V14.01,2013-09-19 05:50:00,
2013-09-19 01:52:00,65.6,63.2,30.10,SSE,148,0.0,1.0,92,0.00,,,0.00,VWS V14.01,2013-09-19 05:52:00,
2013-09-19 02:00:00,65.6,63.2,30.09,SSE,148,0.0,1.0,92,0.00,,,0.00,VWS V14.01,2013-09-19 06:00:00,
2013-09-19 02:07:00,65.6,63.2,30.09,SSE,148,0.0,1.0,92,0.00,,,0.00,VWS V14.01,2013-09-19 06:07:00,
2013-09-19 02:10:00,65.6,63.2,30.09,SSE,148,0.0,1.0,92,0.00,,,0.00,VWS V14.01,2013-09-19 06:10:00,
2013-09-19 02:12:00,65.6,63.2,30.09,SSE,148,0.0,1.0,92,0.00,,,0.00,VWS V14.01,2013-09-19 06:12:00,
2013-09-19 02:17:00,65.6,63.2,30.09,SSE,148,0.0,1.0,92,0.00,,,0.00,VWS V14.01,2013-09-19 06:17:00,
2013-09-19 02:20:00,65.6,63.2,30.09,SSE,148,0.0,1.0,92,0.00,,,0.00,VWS V14.01,2013-09-19 06:20:00,
2013-09-19 02:22:00,65.6,63.2,30.09,SSE,148,0.0,1.0,92,0.00,,,0.00,VWS V14.01,2013-09-19 06:22:00,
2013-09-19 02:30:00,65.6,63.2,30.09,SSE,148,0.0,1.0,92,0.00,,,0.00,VWS V14.01,2013-09-19 06:30:00,
2013-09-19 02:32:00,65.6,63.2,30.09,SSE,148,0.0,1.0,92,0.00,,,0.00,VWS V14.01,2013-09-19 06:32:00,
2013-09-19 02:37:00,65.6,63.2,30.09,SSE,148,0.0,1.0,92,0.00,,,0.00,VWS V14.01,2013-09-19 06:37:00,
2013-09-19 02:42:00,65.6,63.2,30.09,SSE,148,0.0,1.0,92,0.00,,,0.00,VWS V14.01,2013-09-19 06:42:00,
2013-09-19 02:47:00,65.6,63.2,30.09,SSE,148,0.0,1.0,92,0.00,,,0.00,VWS V14.01,2013-09-19 06:47:00,
2013-09-19 02:50:00,65.6,63.2,30.09,SSE,148,0.0,1.0,92,0.00,,,0.00,VWS V14.01,2013-09-19 06:50:00,
2013-09-19 02:52:00,65.6,62.9,30.09,SSE,148,0.0,1.0,91,0.00,,,0.00,VWS V14.01,2013-09-19 06:52:00,
2013-09-19 03:02:00,65.6,63.2,30.10,SSE,148,0.0,1.0,92,0.00,,,0.00,VWS V14.01,2013-09-19 07:02:00,
2013-09-19 03:07:00,65.6,63.2,30.09,SSE,148,0.0,1.0,92,0.00,,,0.00,VWS V14.01,2013-09-19 07:07:00,
2013-09-19 03:10:00,65.5,63.1,30.09,SSE,148,0.0,1.0,92,0.00,,,0.00,VWS V14.01,2013-09-19 07:10:00,
2013-09-19 03:12:00,65.5,63.1,30.09,SSE,148,0.0,1.0,92,0.00,,,0.00,VWS V14.01,2013-09-19 07:12:00,
2013-09-19 03:17:00,65.5,63.1,30.09,SSE,148,0.0,1.0,92,0.00,,,0.00,VWS V14.01,2013-09-19 07:17:00,
2013-09-19 03:27:00,65.3,62.9,30.09,SSE,148,0.0,1.0,92,0.00,,,0.00,VWS V14.01,2013-09-19 07:27:00,
2013-09-19 03:32:00,65.6,63.2,30.09,SSE,148,0.0,1.0,92,0.00,,,0.00,VWS V14.01,2013-09-19 07:32:00,
2013-09-19 03:37:00,65.2,62.8,30.09,SSE,148,0.0,1.0,92,0.00,,,0.00,VWS V14.01,2013-09-19 07:37:00,
2013-09-19 03:42:00,65.0,62.6,30.09,SSE,148,0.0,1.0,92,0.00,,,0.00,VWS V14.01,2013-09-19 07:42:00,
2013-09-19 03:45:00,65.6,63.2,30.09,SSE,148,0.0,1.0,92,0.00,,,0.00,VWS V14.01,2013-09-19 07:45:00,
2013-09-19 03:57:00,64.7,62.3,30.09,SSE,148,0.0,1.0,92,0.00,,,0.00,VWS V14.01,2013-09-19 07:57:00,
2013-09-19 04:02:00,65.6,62.9,30.09,SSE,148,0.0,1.0,91,0.00,,,0.00,VWS V14.01,2013-09-19 08:02:00,
2013-09-19 04:07:00,64.5,62.4,30.09,SSE,148,0.0,1.0,93,0.00,,,0.00,VWS V14.01,2013-09-19 08:07:00,
2013-09-19 04:12:00,64.5,62.4,30.09,SSE,148,0.0,1.0,93,0.00,,,0.00,VWS V14.01,2013-09-19 08:12:00,
2013-09-19 04:20:00,64.5,62.4,30.09,SSE,148,0.0,1.0,93,0.00,,,0.00,VWS V14.01,2013-09-19 08:20:00,
2013-09-19 04:22:00,64.5,62.4,30.09,SSE,148,0.0,1.0,93,0.00,,,0.00,VWS V14.01,2013-09-19 08:22:00,
2013-09-19 04:25:00,65.3,62.9,30.09,SSE,148,0.0,1.0,92,0.00,,,0.00,VWS V14.01,2013-09-19 08:25:00,
2013-09-19 04:30:00,64.3,62.2,30.09,SSE,148,0.0,1.0,93,0.00,,,0.00,VWS V14.01,2013-09-19 08:30:00,
2013-09-19 04:35:00,65.2,62.8,30.09,SSE,148,0.0,1.0,92,0.00,,,0.00,VWS V14.01,2013-09-19 08:35:00,
2013-09-19 04:40:00,64.2,62.1,30.09,SSE,148,0.0,1.0,93,0.00,,,0.00,VWS V14.01,2013-09-19 08:40:00,
2013-09-19 04:42:00,64.2,62.1,30.09,SSE,148,0.0,1.0,93,0.00,,,0.00,VWS V14.01,2013-09-19 08:42:00,
2013-09-19 04:45:00,65.0,62.6,30.09,SSE,148,0.0,1.0,92,0.00,,,0.00,VWS V14.01,2013-09-19 08:45:00,
2013-09-19 04:50:00,64.0,62.2,30.09,SSE,148,0.0,1.0,94,0.00,,,0.00,VWS V14.01,2013-09-19 08:50:00,
2013-09-19 04:52:00,65.0,62.6,30.09,SSE,148,0.0,1.0,92,0.00,,,0.00,VWS V14.01,2013-09-19 08:52:00,
2013-09-19 04:57:00,64.8,62.4,30.09,SSE,148,0.0,1.0,92,0.00,,,0.00,VWS V14.01,2013-09-19 08:57:00,
2013-09-19 05:02:00,64.2,62.4,30.09,SSE,148,0.0,1.0,94,0.00,,,0.00,VWS V14.01,2013-09-19 09:02:00,
2013-09-19 05:05:00,64.7,62.3,30.09,SSE,148,0.0,1.0,92,0.00,,,0.00,VWS V14.01,2013-09-19 09:05:00,
2013-09-19 05:07:00,64.2,62.4,30.09,SSE,148,0.0,1.0,94,0.00,,,0.00,VWS V14.01,2013-09-19 09:07:00,
2013-09-19 05:15:00,64.5,62.4,30.09,SSE,148,0.0,1.0,93,0.00,,,0.00,VWS V14.01,2013-09-19 09:15:00,
2013-09-19 05:22:00,64.5,62.4,30.09,SSE,148,0.0,1.0,93,0.00,,,0.00,VWS V14.01,2013-09-19 09:22:00,
2013-09-19 05:32:00,64.3,62.2,30.09,SSE,148,0.0,1.0,93,0.00,,,0.00,VWS V14.01,2013-09-19 09:32:00,
2013-09-19 05:37:00,64.2,62.1,30.09,SSE,148,0.0,1.0,93,0.00,,,0.00,VWS V14.01,2013-09-19 09:37:00,
2013-09-19 05:42:00,64.2,62.1,30.09,SSE,148,0.0,1.0,93,0.00,,,0.00,VWS V14.01,2013-09-19 09:42:00,
2013-09-19 05:52:00,64.0,61.9,30.09,SSE,148,0.0,1.0,93,0.00,,,0.00,VWS V14.01,2013-09-19 09:52:00,
2013-09-19 05:57:00,64.2,62.4,30.09,SSE,148,0.0,1.0,94,0.00,,,0.00,VWS V14.01,2013-09-19 09:57:00,
2013-09-19 06:00:00,63.9,62.1,30.11,SSE,148,0.0,1.0,94,0.00,,,0.00,VWS V14.01,2013-09-19 10:00:00,
2013-09-19 06:02:00,64.2,62.4,30.09,SSE,148,0.0,1.0,94,0.00,,,0.00,VWS V14.01,2013-09-19 10:02:00,
2013-09-19 06:10:00,63.9,62.1,30.11,SSE,148,0.0,1.0,94,0.00,,,0.00,VWS V14.01,2013-09-19 10:10:00,
2013-09-19 06:12:00,63.9,62.1,30.11,SSE,148,0.0,1.0,94,0.00,,,0.00,VWS V14.01,2013-09-19 10:12:00,
2013-09-19 06:15:00,64.0,62.2,30.09,SSE,148,0.0,1.0,94,0.00,,,0.00,VWS V14.01,2013-09-19 10:15:00,
2013-09-19 06:22:00,64.0,62.2,30.09,SSE,148,0.0,1.0,94,0.00,,,0.00,VWS V14.01,2013-09-19 10:22:00,
2013-09-19 06:27:00,64.0,62.2,30.09,SSE,148,0.0,1.0,94,0.00,,,0.00,VWS V14.01,2013-09-19 10:27:00,
2013-09-19 06:30:00,64.0,62.2,30.11,SSE,148,0.0,1.0,94,0.00,,,0.00,VWS V14.01,2013-09-19 10:30:00,
2013-09-19 06:32:00,64.0,62.2,30.09,SSE,148,0.0,1.0,94,0.00,,,0.00,VWS V14.01,2013-09-19 10:32:00,
2013-09-19 06:37:00,64.0,62.2,30.10,SSE,148,0.0,1.0,94,0.00,,,0.00,VWS V14.01,2013-09-19 10:37:00,
2013-09-19 06:40:00,64.2,62.4,30.11,SSE,148,0.0,1.0,94,0.00,,,0.00,VWS V14.01,2013-09-19 10:40:00,
2013-09-19 06:42:00,63.9,62.1,30.10,SSE,148,0.0,1.0,94,0.00,,,0.00,VWS V14.01,2013-09-19 10:42:00,
2013-09-19 06:52:00,63.9,62.1,30.10,SSE,148,0.0,1.0,94,0.00,,,0.00,VWS V14.01,2013-09-19 10:52:00,
2013-09-19 06:57:00,63.9,62.1,30.10,SSE,148,0.0,1.0,94,0.00,,,0.00,VWS V14.01,2013-09-19 10:57:00,
2013-09-19 07:00:00,64.8,62.7,30.11,SSE,148,0.0,1.0,93,0.00,,,0.00,VWS V14.01,2013-09-19 11:00:00,
2013-09-19 07:02:00,64.8,62.7,30.11,SSE,148,0.0,1.0,93,0.00,,,0.00,VWS V14.01,2013-09-19 11:02:00,
2013-09-19 07:07:00,64.0,62.2,30.11,SSE,148,0.0,1.0,94,0.00,,,0.00,VWS V14.01,2013-09-19 11:07:00,
2013-09-19 07:10:00,65.2,62.8,30.11,SSE,148,0.0,1.0,92,0.00,,,0.00,VWS V14.01,2013-09-19 11:10:00,
2013-09-19 07:12:00,63.9,62.1,30.11,SSE,148,0.0,1.0,94,0.00,,,0.00,VWS V14.01,2013-09-19 11:12:00,
2013-09-19 07:22:00,63.9,62.1,30.12,SSE,148,0.0,1.0,94,0.00,,,0.00,VWS V14.01,2013-09-19 11:22:00,
2013-09-19 07:27:00,63.9,62.1,30.12,SSE,148,0.0,1.0,94,0.00,,,0.00,VWS V14.01,2013-09-19 11:27:00,
2013-09-19 07:32:00,64.0,62.2,30.12,SSE,148,0.0,1.0,94,0.00,,,0.00,VWS V14.01,2013-09-19 11:32:00,
2013-09-19 07:37:00,64.0,62.2,30.11,SSE,148,0.0,1.0,94,0.00,,,0.00,VWS V14.01,2013-09-19 11:37:00,
2013-09-19 07:42:00,64.2,62.4,30.11,SSE,148,0.0,1.0,94,0.00,,,0.00,VWS V14.01,2013-09-19 11:42:00,
2013-09-19 07:47:00,64.2,62.4,30.11,SSE,148,0.0,1.0,94,0.00,,,0.00,VWS V14.01,2013-09-19 11:47:00,
2013-09-19 07:52:00,64.3,62.5,30.12,SSE,148,0.0,1.0,94,0.00,,,0.00,VWS V14.01,2013-09-19 11:52:00,
2013-09-19 07:57:00,64.5,62.4,30.12,SSE,148,0.0,1.0,93,0.00,,,0.00,VWS V14.01,2013-09-19 11:57:00,
2013-09-19 08:02:00,64.7,62.6,30.12,SSE,148,0.0,1.0,93,0.00,,,0.00,VWS V14.01,2013-09-19 12:02:00,
2013-09-19 08:17:00,65.3,62.9,30.11,SSE,148,0.0,1.0,92,0.00,,,0.00,VWS V14.01,2013-09-19 12:17:00,
2013-09-19 08:22:00,65.5,62.8,30.12,SSE,148,0.0,1.0,91,0.00,,,0.00,VWS V14.01,2013-09-19 12:22:00,
2013-09-19 08:27:00,65.6,62.6,30.12,SSE,148,0.0,1.0,90,0.00,,,0.00,VWS V14.01,2013-09-19 12:27:00,
2013-09-19 08:32:00,66.0,63.0,30.12,SSE,148,0.0,1.0,90,0.00,,,0.00,VWS V14.01,2013-09-19 12:32:00,
2013-09-19 08:37:00,66.1,62.8,30.12,SSE,148,0.0,1.0,89,0.00,,,0.00,VWS V14.01,2013-09-19 12:37:00,
2013-09-19 08:45:00,66.6,62.9,30.12,SSE,156,0.0,1.0,88,0.00,,,0.00,VWS V14.01,2013-09-19 12:45:00,
2013-09-19 08:52:00,66.9,62.6,30.12,SW,218,0.0,1.0,86,0.00,,,0.00,VWS V14.01,2013-09-19 12:52:00,
2013-09-19 08:58:00,67.3,63.0,30.12,SW,218,0.0,1.0,86,0.00,,,0.00,VWS V14.01,2013-09-19 12:58:00,
2013-09-19 09:03:00,67.4,62.7,30.12,SW,218,0.0,1.0,85,0.00,,,0.00,VWS V14.01,2013-09-19 13:03:00,
2013-09-19 09:08:00,67.8,62.8,30.12,SW,217,0.0,1.0,84,0.00,,,0.00,VWS V14.01,2013-09-19 13:08:00,
2013-09-19 09:13:00,68.1,62.8,30.12,SW,217,0.0,1.0,83,0.00,,,0.00,VWS V14.01,2013-09-19 13:13:00,
2013-09-19 09:18:00,68.3,62.9,30.12,SW,217,0.0,1.0,83,0.00,,,0.00,VWS V14.01,2013-09-19 13:18:00,
2013-09-19 09:23:00,68.4,62.7,30.12,SW,217,0.0,1.0,82,0.00,,,0.00,VWS V14.01,2013-09-19 13:23:00,
2013-09-19 09:28:00,68.6,62.9,30.12,SW,217,0.0,1.0,82,0.00,,,0.00,VWS V14.01,2013-09-19 13:28:00,
2013-09-19 09:33:00,68.8,63.1,30.12,SW,218,0.0,1.0,82,0.00,,,0.00,VWS V14.01,2013-09-19 13:33:00,
2013-09-19 09:38:00,68.9,63.2,30.13,SW,217,0.0,1.0,82,0.00,,,0.00,VWS V14.01,2013-09-19 13:38:00,
2013-09-19 09:43:00,69.1,63.0,30.13,SW,218,0.0,1.0,81,0.00,,,0.00,VWS V14.01,2013-09-19 13:43:00,
2013-09-19 09:48:00,69.3,63.2,30.13,SW,217,0.0,1.0,81,0.00,,,0.00,VWS V14.01,2013-09-19 13:48:00,
2013-09-19 09:53:00,69.4,63.3,30.13,SSW,197,0.0,1.0,81,0.00,,,0.00,VWS V14.01,2013-09-19 13:53:00,
2013-09-19 09:58:00,69.6,63.5,30.13,SSW,197,0.0,1.0,81,0.00,,,0.00,VWS V14.01,2013-09-19 13:58:00,
2013-09-19 10:03:00,69.8,63.4,30.13,SW,218,0.0,1.0,80,0.00,,,0.00,VWS V14.01,2013-09-19 14:03:00,
2013-09-19 10:08:00,69.9,63.5,30.14,SW,215,1.0,1.0,80,0.00,,,0.00,VWS V14.01,2013-09-19 14:08:00,
2013-09-19 10:13:00,70.1,63.7,30.14,SW,219,0.0,1.0,80,0.00,,,0.00,VWS V14.01,2013-09-19 14:13:00,
2013-09-19 10:18:00,70.1,63.7,30.14,SSW,201,0.0,1.0,80,0.00,,,0.00,VWS V14.01,2013-09-19 14:18:00,
2013-09-19 10:23:00,70.3,63.5,30.14,SW,230,0.0,1.0,79,0.00,,,0.00,VWS V14.01,2013-09-19 14:23:00,
2013-09-19 10:28:00,70.4,63.6,30.14,SW,220,0.0,1.0,79,0.00,,,0.00,VWS V14.01,2013-09-19 14:28:00,
2013-09-19 10:33:00,70.6,63.4,30.14,SW,220,0.0,1.0,78,0.00,,,0.00,VWS V14.01,2013-09-19 14:33:00,
2013-09-19 10:38:00,70.8,63.6,30.14,SW,220,0.0,1.0,78,0.00,,,0.00,VWS V14.01,2013-09-19 14:38:00,
2013-09-19 10:43:00,70.8,63.6,30.14,SW,218,0.0,1.0,78,0.00,,,0.00,VWS V14.01,2013-09-19 14:43:00,
2013-09-19 10:48:00,70.8,63.6,30.14,SW,218,0.0,1.0,78,0.00,,,0.00,VWS V14.01,2013-09-19 14:48:00,
2013-09-19 10:53:00,70.8,63.6,30.14,SW,218,0.0,1.0,78,0.00,,,0.00,VWS V14.01,2013-09-19 14:53:00,
2013-09-19 10:58:00,70.8,63.6,30.14,SW,218,0.0,1.0,78,0.00,,,0.00,VWS V14.01,2013-09-19 14:58:00,
2013-09-19 11:03:00,70.8,63.6,30.14,SW,218,0.0,1.0,78,0.00,,,0.00,VWS V14.01,2013-09-19 15:03:00,
2013-09-19 11:08:00,70.8,63.6,30.14,SW,218,0.0,1.0,78,0.00,,,0.00,VWS V14.01,2013-09-19 15:08:00,
2013-09-19 11:13:00,70.6,63.8,30.14,SW,221,2.0,2.0,79,0.00,,,0.00,VWS V14.01,2013-09-19 15:13:00,
2013-09-19 11:18:00,70.6,64.1,30.14,WNW,301,0.0,1.0,80,0.00,,,0.00,VWS V14.01,2013-09-19 15:18:00,
2013-09-19 11:23:00,70.3,63.8,30.16,WNW,295,1.0,1.0,80,0.00,,,0.00,VWS V14.01,2013-09-19 15:23:00,
2013-09-19 11:28:00,70.1,64.0,30.16,WNW,296,3.0,3.0,81,0.00,,,0.00,VWS V14.01,2013-09-19 15:28:00,
2013-09-19 11:33:00,69.9,63.8,30.16,WNW,296,0.0,1.0,81,0.00,,,0.00,VWS V14.01,2013-09-19 15:33:00,
2013-09-19 11:38:00,69.9,64.2,30.15,WNW,296,0.0,1.0,82,0.00,,,0.00,VWS V14.01,2013-09-19 15:38:00,
2013-09-19 11:43:00,70.1,64.7,30.15,WNW,296,0.0,1.0,83,0.00,,,0.00,VWS V14.01,2013-09-19 15:43:00,
2013-09-19 11:48:00,70.1,64.4,30.15,WNW,296,0.0,1.0,82,0.00,,,0.00,VWS V14.01,2013-09-19 15:48:00,
2013-09-19 11:53:00,70.1,64.4,30.15,WNW,296,0.0,1.0,82,0.00,,,0.00,VWS V14.01,2013-09-19 15:53:00,
2013-09-19 11:58:00,70.1,64.4,30.15,WNW,296,0.0,1.0,82,0.00,,,0.00,VWS V14.01,2013-09-19 15:58:00,
2013-09-19 12:03:00,70.3,64.6,30.15,WNW,296,0.0,1.0,82,0.00,,,0.00,VWS V14.01,2013-09-19 16:03:00,
2013-09-19 12:08:00,70.1,64.7,30.14,WNW,296,0.0,1.0,83,0.00,,,0.00,VWS V14.01,2013-09-19 16:08:00,
2013-09-19 12:13:00,70.3,64.9,30.14,WNW,296,0.0,1.0,83,0.00,,,0.00,VWS V14.01,2013-09-19 16:13:00,
2013-09-19 12:18:00,70.1,65.1,30.14,WNW,296,0.0,1.0,84,0.00,,,0.00,VWS V14.01,2013-09-19 16:18:00,
2013-09-19 12:23:00,70.3,65.6,30.14,WNW,296,0.0,1.0,85,0.00,,,0.00,VWS V14.01,2013-09-19 16:23:00,
2013-09-19 12:28:00,70.4,65.7,30.14,WNW,296,0.0,1.0,85,0.00,,,0.00,VWS V14.01,2013-09-19 16:28:00,
2013-09-19 12:33:00,70.6,65.5,30.14,WNW,296,0.0,1.0,84,0.00,,,0.00,VWS V14.01,2013-09-19 16:33:00,
2013-09-19 12:38:00,70.8,65.7,30.13,WNW,296,0.0,1.0,84,0.00,,,0.00,VWS V14.01,2013-09-19 16:38:00,
2013-09-19 12:43:00,71.3,66.2,30.13,WNW,296,0.0,1.0,84,0.00,,,0.00,VWS V14.01,2013-09-19 16:43:00,
2013-09-19 12:48:00,71.8,66.0,30.13,WNW,296,0.0,1.0,82,0.00,,,0.00,VWS V14.01,2013-09-19 16:48:00,
2013-09-19 12:53:00,72.3,66.2,30.12,WNW,296,0.0,1.0,81,0.00,,,0.00,VWS V14.01,2013-09-19 16:53:00,
2013-09-19 12:58:00,73.2,66.3,30.12,WNW,296,0.0,1.0,79,0.00,,,0.00,VWS V14.01,2013-09-19 16:58:00,
2013-09-19 13:03:00,74.2,65.8,30.12,SW,221,0.0,1.0,75,0.00,,,0.00,VWS V14.01,2013-09-19 17:03:00,
2013-09-19 13:08:00,74.9,65.7,30.12,SW,227,0.0,1.0,73,0.00,,,0.00,VWS V14.01,2013-09-19 17:08:00,
2013-09-19 13:13:00,75.3,66.1,30.12,SW,219,0.0,1.0,73,0.00,,,0.00,VWS V14.01,2013-09-19 17:13:00,
2013-09-19 13:18:00,76.0,65.5,30.12,SW,219,0.0,1.0,70,0.00,,,0.00,VWS V14.01,2013-09-19 17:18:00,
2013-09-19 13:23:00,75.8,66.1,30.10,SW,218,0.0,1.0,72,0.00,,,0.00,VWS V14.01,2013-09-19 17:23:00,
2013-09-19 13:28:00,76.0,65.9,30.10,SW,219,0.0,1.0,71,0.00,,,0.00,VWS V14.01,2013-09-19 17:28:00,
2013-09-19 13:33:00,76.0,66.3,30.10,SW,219,0.0,1.0,72,0.00,,,0.00,VWS V14.01,2013-09-19 17:33:00,
2013-09-19 13:38:00,76.5,66.0,30.10,SW,218,0.0,1.0,70,0.00,,,0.00,VWS V14.01,2013-09-19 17:38:00,
2013-09-19 13:43:00,76.3,65.8,30.10,SW,221,3.0,3.0,70,0.00,,,0.00,VWS V14.01,2013-09-19 17:43:00,
2013-09-19 13:48:00,76.3,66.2,30.10,WSW,239,0.0,1.0,71,0.00,,,0.00,VWS V14.01,2013-09-19 17:48:00,
2013-09-19 13:53:00,76.5,66.0,30.10,WSW,254,0.0,1.0,70,0.00,,,0.00,VWS V14.01,2013-09-19 17:53:00,
2013-09-19 13:58:00,76.5,66.0,30.10,WSW,253,0.0,1.0,70,0.00,,,0.00,VWS V14.01,2013-09-19 17:58:00,
2013-09-19 14:03:00,76.7,66.2,30.10,SW,230,0.0,1.0,70,0.00,,,0.00,VWS V14.01,2013-09-19 18:03:00,
2013-09-19 14:08:00,76.7,66.2,30.10,SW,230,0.0,1.0,70,0.00,,,0.00,VWS V14.01,2013-09-19 18:08:00,
2013-09-19 14:13:00,77.0,66.5,30.10,SW,219,0.0,1.0,70,0.00,,,0.00,VWS V14.01,2013-09-19 18:13:00,
2013-09-19 14:18:00,76.7,66.2,30.10,WNW,290,1.0,1.0,70,0.00,,,0.00,VWS V14.01,2013-09-19 18:18:00,
2013-09-19 14:23:00,76.5,66.0,30.10,SW,233,0.0,1.0,70,0.00,,,0.00,VWS V14.01,2013-09-19 18:23:00,
2013-09-19 14:28:00,76.3,66.2,30.10,SW,234,0.0,1.0,71,0.00,,,0.00,VWS V14.01,2013-09-19 18:28:00,
2013-09-19 14:33:00,76.3,66.2,30.10,SW,236,0.0,1.0,71,0.00,,,0.00,VWS V14.01,2013-09-19 18:33:00,
2013-09-19 14:38:00,76.5,66.4,30.09,SW,236,0.0,1.0,71,0.00,,,0.00,VWS V14.01,2013-09-19 18:38:00,
2013-09-19 14:43:00,76.7,66.2,30.09,South,187,0.0,1.0,70,0.00,,,0.00,VWS V14.01,2013-09-19 18:43:00,
2013-09-19 14:48:00,76.8,66.7,30.09,South,188,0.0,1.0,71,0.00,,,0.00,VWS V14.01,2013-09-19 18:48:00,
2013-09-19 14:53:00,76.7,66.6,30.09,South,186,0.0,1.0,71,0.00,,,0.00,VWS V14.01,2013-09-19 18:53:00,
2013-09-19 14:58:00,76.7,67.0,30.09,South,186,0.0,1.0,72,0.00,,,0.00,VWS V14.01,2013-09-19 18:58:00,
2013-09-19 15:03:00,76.8,66.7,30.09,South,186,0.0,1.0,71,0.00,,,0.00,VWS V14.01,2013-09-19 19:03:00,
2013-09-19 15:08:00,76.8,66.7,30.07,South,186,0.0,1.0,71,0.00,,,0.00,VWS V14.01,2013-09-19 19:08:00,
2013-09-19 15:13:00,76.8,66.7,30.07,South,183,0.0,1.0,71,0.00,,,0.00,VWS V14.01,2013-09-19 19:13:00,
2013-09-19 15:18:00,76.7,66.6,30.07,South,184,0.0,1.0,71,0.00,,,0.00,VWS V14.01,2013-09-19 19:18:00,
2013-09-19 15:23:00,76.5,66.8,30.07,SW,215,0.0,1.0,72,0.00,,,0.00,VWS V14.01,2013-09-19 19:23:00,
2013-09-19 15:28:00,76.3,66.6,30.07,SW,215,0.0,1.0,72,0.00,,,0.00,VWS V14.01,2013-09-19 19:28:00,
2013-09-19 15:33:00,76.5,66.4,30.07,SW,215,0.0,1.0,71,0.00,,,0.00,VWS V14.01,2013-09-19 19:33:00,
2013-09-19 15:38:00,76.5,66.4,30.06,SW,215,0.0,1.0,71,0.00,,,0.00,VWS V14.01,2013-09-19 19:38:00,
2013-09-19 15:43:00,76.8,66.7,30.06,SW,215,0.0,1.0,71,0.00,,,0.00,VWS V14.01,2013-09-19 19:43:00,
2013-09-19 15:48:00,77.0,66.9,30.06,SW,214,0.0,1.0,71,0.00,,,0.00,VWS V14.01,2013-09-19 19:48:00,
2013-09-19 15:53:00,77.2,67.1,30.06,SW,214,0.0,1.0,71,0.00,,,0.00,VWS V14.01,2013-09-19 19:53:00,
2013-09-19 15:58:00,77.4,66.9,30.06,SW,225,0.0,1.0,70,0.00,,,0.00,VWS V14.01,2013-09-19 19:58:00,
2013-09-19 16:03:00,77.4,66.4,30.06,SW,225,0.0,1.0,69,0.00,,,0.00,VWS V14.01,2013-09-19 20:03:00,
2013-09-19 16:08:00,77.4,66.4,30.05,SW,228,0.0,1.0,69,0.00,,,0.00,VWS V14.01,2013-09-19 20:08:00,
2013-09-19 16:13:00,77.6,67.1,30.05,SW,228,0.0,1.0,70,0.00,,,0.00,VWS V14.01,2013-09-19 20:13:00,
2013-09-19 16:18:00,77.6,67.1,30.05,SW,228,0.0,1.0,70,0.00,,,0.00,VWS V14.01,2013-09-19 20:18:00,
2013-09-19 16:23:00,77.7,66.7,30.04,SW,228,0.0,1.0,69,0.00,,,0.00,VWS V14.01,2013-09-19 20:23:00,
2013-09-19 16:28:00,77.7,66.7,30.04,SW,227,0.0,1.0,69,0.00,,,0.00,VWS V14.01,2013-09-19 20:28:00,
2013-09-19 16:34:00,77.9,66.9,30.04,SW,227,0.0,1.0,69,0.00,,,0.00,VWS V14.01,2013-09-19 20:34:00,
2013-09-19 16:39:00,77.7,66.3,30.05,WSW,239,0.0,1.0,68,0.00,,,0.00,VWS V14.01,2013-09-19 20:39:00,
2013-09-19 16:44:00,77.9,66.5,30.05,WSW,239,0.0,1.0,68,0.00,,,0.00,VWS V14.01,2013-09-19 20:44:00,
2013-09-19 16:49:00,78.1,66.7,30.05,WSW,239,0.0,1.0,68,0.00,,,0.00,VWS V14.01,2013-09-19 20:49:00,
2013-09-19 16:54:00,78.3,66.9,30.05,WSW,239,0.0,1.0,68,0.00,,,0.00,VWS V14.01,2013-09-19 20:54:00,
2013-09-19 16:59:00,78.5,67.1,30.05,WSW,239,0.0,1.0,68,0.00,,,0.00,VWS V14.01,2013-09-19 20:59:00,
2013-09-19 17:04:00,78.6,67.2,30.05,WSW,238,0.0,1.0,68,0.00,,,0.00,VWS V14.01,2013-09-19 21:04:00,
2013-09-19 17:09:00,78.8,67.4,30.05,WSW,238,0.0,1.0,68,0.00,,,0.00,VWS V14.01,2013-09-19 21:09:00,
2013-09-19 17:14:00,79.0,67.6,30.05,WSW,238,0.0,1.0,68,0.00,,,0.00,VWS V14.01,2013-09-19 21:14:00,
2013-09-19 17:19:00,79.4,67.5,30.05,WSW,238,0.0,1.0,67,0.00,,,0.00,VWS V14.01,2013-09-19 21:19:00,
2013-09-19 17:24:00,79.6,67.2,30.05,WSW,238,0.0,1.0,66,0.00,,,0.00,VWS V14.01,2013-09-19 21:24:00,
2013-09-19 17:29:00,79.6,67.2,30.05,WSW,238,0.0,1.0,66,0.00,,,0.00,VWS V14.01,2013-09-19 21:29:00,
2013-09-19 17:34:00,79.2,67.3,30.05,WSW,238,0.0,1.0,67,0.00,,,0.00,VWS V14.01,2013-09-19 21:34:00,
2013-09-19 17:39:00,79.0,67.1,30.05,WSW,238,0.0,1.0,67,0.00,,,0.00,VWS V14.01,2013-09-19 21:39:00,
2013-09-19 17:44:00,78.8,67.4,30.05,WSW,238,0.0,1.0,68,0.00,,,0.00,VWS V14.01,2013-09-19 21:44:00,
2013-09-19 17:49:00,78.6,67.2,30.04,WSW,238,0.0,1.0,68,0.00,,,0.00,VWS V14.01,2013-09-19 21:49:00,
2013-09-19 17:54:00,78.6,67.6,30.04,WSW,238,0.0,1.0,69,0.00,,,0.00,VWS V14.01,2013-09-19 21:54:00,
2013-09-19 17:59:00,78.6,67.6,30.04,WSW,238,0.0,1.0,69,0.00,,,0.00,VWS V14.01,2013-09-19 21:59:00,
2013-09-19 18:04:00,78.6,67.6,30.04,WSW,238,0.0,1.0,69,0.00,,,0.00,VWS V14.01,2013-09-19 22:04:00,
2013-09-19 18:09:00,78.5,68.3,30.04,WSW,238,0.0,1.0,71,0.00,,,0.00,VWS V14.01,2013-09-19 22:09:00,
2013-09-19 18:14:00,78.5,68.3,30.04,WSW,238,0.0,1.0,71,0.00,,,0.00,VWS V14.01,2013-09-19 22:14:00,
2013-09-19 18:19:00,78.5,67.9,30.04,WSW,238,0.0,1.0,70,0.00,,,0.00,VWS V14.01,2013-09-19 22:19:00,
2013-09-19 18:24:00,78.5,67.9,30.04,WSW,238,0.0,1.0,70,0.00,,,0.00,VWS V14.01,2013-09-19 22:24:00,
2013-09-19 18:29:00,78.5,67.9,30.04,WSW,238,0.0,1.0,70,0.00,,,0.00,VWS V14.01,2013-09-19 22:29:00,
2013-09-19 18:34:00,78.3,67.7,30.03,WSW,238,0.0,1.0,70,0.00,,,0.00,VWS V14.01,2013-09-19 22:34:00,
2013-09-19 18:39:00,78.3,67.7,30.03,WSW,238,0.0,1.0,70,0.00,,,0.00,VWS V14.01,2013-09-19 22:39:00,
2013-09-19 18:44:00,78.3,67.3,30.03,WSW,238,0.0,1.0,69,0.00,,,0.00,VWS V14.01,2013-09-19 22:44:00,
2013-09-19 18:49:00,78.3,67.7,30.03,WSW,238,0.0,1.0,70,0.00,,,0.00,VWS V14.01,2013-09-19 22:49:00,
2013-09-19 18:54:00,78.1,67.9,30.03,WSW,238,0.0,1.0,71,0.00,,,0.00,VWS V14.01,2013-09-19 22:54:00,
2013-09-19 18:59:00,78.1,67.9,30.03,WSW,238,0.0,1.0,71,0.00,,,0.00,VWS V14.01,2013-09-19 22:59:00,
2013-09-19 19:04:00,77.9,68.2,30.03,WSW,238,0.0,1.0,72,0.00,,,0.00,VWS V14.01,2013-09-19 23:04:00,
2013-09-19 19:09:00,77.7,67.6,30.03,WSW,238,0.0,1.0,71,0.00,,,0.00,VWS V14.01,2013-09-19 23:09:00,
2013-09-19 19:14:00,77.7,68.0,30.03,WSW,238,0.0,1.0,72,0.00,,,0.00,VWS V14.01,2013-09-19 23:14:00,
2013-09-19 19:19:00,77.6,67.9,30.02,WSW,238,0.0,1.0,72,0.00,,,0.00,VWS V14.01,2013-09-19 23:19:00,
2013-09-19 19:24:00,77.2,67.9,30.02,WSW,238,0.0,1.0,73,0.00,,,0.00,VWS V14.01,2013-09-19 23:24:00,
2013-09-19 19:29:00,76.8,67.5,30.02,WSW,238,0.0,1.0,73,0.00,,,0.00,VWS V14.01,2013-09-19 23:29:00,
2013-09-19 19:34:00,76.5,67.6,30.02,WSW,238,0.0,1.0,74,0.00,,,0.00,VWS V14.01,2013-09-19 23:34:00,
2013-09-19 19:39:00,76.1,67.6,30.02,WSW,238,0.0,1.0,75,0.00,,,0.00,VWS V14.01,2013-09-19 23:39:00,
2013-09-19 19:44:00,76.0,67.5,30.02,WSW,238,0.0,1.0,75,0.00,,,0.00,VWS V14.01,2013-09-19 23:44:00,
2013-09-19 19:49:00,75.8,67.7,30.02,WSW,238,0.0,1.0,76,0.00,,,0.00,VWS V14.01,2013-09-19 23:49:00,
2013-09-19 19:54:00,75.6,67.9,30.02,WSW,238,0.0,1.0,77,0.00,,,0.00,VWS V14.01,2013-09-19 23:54:00,
2013-09-19 19:59:00,75.3,68.0,30.02,WSW,238,0.0,1.0,78,0.00,,,0.00,VWS V14.01,2013-09-19 23:59:00,
2013-09-19 20:04:00,75.1,67.8,30.02,WSW,238,0.0,1.0,78,0.00,,,0.00,VWS V14.01,2013-09-20 00:04:00,
2013-09-19 20:09:00,74.9,67.9,30.02,WSW,238,0.0,1.0,79,0.00,,,0.00,VWS V14.01,2013-09-20 00:09:00,
2013-09-19 20:15:00,74.7,68.1,30.02,WSW,238,0.0,1.0,80,0.00,,,0.00,VWS V14.01,2013-09-20 00:15:00,
2013-09-19 20:24:00,74.6,68.0,30.02,WSW,238,0.0,1.0,80,0.00,,,0.00,VWS V14.01,2013-09-20 00:24:00,
2013-09-19 20:29:00,74.4,67.8,30.02,WSW,238,0.0,1.0,80,0.00,,,0.00,VWS V14.01,2013-09-20 00:29:00,
2013-09-19 20:34:00,74.4,68.2,30.02,WSW,238,0.0,1.0,81,0.00,,,0.00,VWS V14.01,2013-09-20 00:34:00,
2013-09-19 20:39:00,74.2,68.0,30.02,WSW,238,0.0,1.0,81,0.00,,,0.00,VWS V14.01,2013-09-20 00:39:00,
2013-09-19 20:44:00,74.0,67.8,30.02,WSW,238,0.0,1.0,81,0.00,,,0.00,VWS V14.01,2013-09-20 00:44:00,
2013-09-19 20:49:00,74.0,67.8,30.02,WSW,238,0.0,1.0,81,0.00,,,0.00,VWS V14.01,2013-09-20 00:49:00,
2013-09-19 20:54:00,73.9,68.1,30.02,WSW,238,0.0,1.0,82,0.00,,,0.00,VWS V14.01,2013-09-20 00:54:00,
2013-09-19 20:59:00,73.7,67.9,30.02,WSW,238,0.0,1.0,82,0.00,,,0.00,VWS V14.01,2013-09-20 00:59:00,
2013-09-19 21:04:00,73.7,67.9,30.02,WSW,238,0.0,1.0,82,0.00,,,0.00,VWS V14.01,2013-09-20 01:04:00,
2013-09-19 21:09:00,73.5,68.0,30.02,WSW,238,0.0,1.0,83,0.00,,,0.00,VWS V14.01,2013-09-20 01:09:00,
2013-09-19 21:14:00,73.5,68.0,30.02,WSW,238,0.0,1.0,83,0.00,,,0.00,VWS V14.01,2013-09-20 01:14:00,
2013-09-19 21:19:00,73.3,67.8,30.02,WSW,238,0.0,1.0,83,0.00,,,0.00,VWS V14.01,2013-09-20 01:19:00,
2013-09-19 21:24:00,73.3,67.8,30.02,WSW,238,0.0,1.0,83,0.00,,,0.00,VWS V14.01,2013-09-20 01:24:00,
2013-09-19 21:29:00,73.2,67.7,30.02,WSW,238,0.0,1.0,83,0.00,,,0.00,VWS V14.01,2013-09-20 01:29:00,
2013-09-19 21:34:00,73.2,67.7,30.02,WSW,238,0.0,1.0,83,0.00,,,0.00,VWS V14.01,2013-09-20 01:34:00,
2013-09-19 21:39:00,73.0,67.5,30.02,WSW,238,0.0,1.0,83,0.00,,,0.00,VWS V14.01,2013-09-20 01:39:00,
2013-09-19 21:44:00,73.0,67.9,30.02,WSW,238,0.0,1.0,84,0.00,,,0.00,VWS V14.01,2013-09-20 01:44:00,
2013-09-19 21:50:00,73.0,67.9,30.01,WSW,238,0.0,1.0,84,0.00,,,0.00,VWS V14.01,2013-09-20 01:50:00,
2013-09-19 21:55:00,73.0,67.9,30.01,WSW,238,0.0,1.0,84,0.00,,,0.00,VWS V14.01,2013-09-20 01:55:00,
2013-09-19 22:00:00,73.0,67.9,30.01,WSW,238,0.0,1.0,84,0.00,,,0.00,VWS V14.01,2013-09-20 02:00:00,
2013-09-19 22:05:00,73.0,67.9,30.01,WSW,238,0.0,1.0,84,0.00,,,0.00,VWS V14.01,2013-09-20 02:05:00,
2013-09-19 22:10:00,73.0,67.9,30.01,WSW,238,0.0,1.0,84,0.00,,,0.00,VWS V14.01,2013-09-20 02:10:00,
2013-09-19 22:15:00,72.8,67.7,30.01,WSW,238,0.0,1.0,84,0.00,,,0.00,VWS V14.01,2013-09-20 02:15:00,
2013-09-19 22:20:00,72.8,68.0,30.01,WSW,238,0.0,1.0,85,0.00,,,0.00,VWS V14.01,2013-09-20 02:20:00,
2013-09-19 22:25:00,72.7,67.9,30.01,WSW,238,0.0,1.0,85,0.00,,,0.00,VWS V14.01,2013-09-20 02:25:00,
2013-09-19 22:30:00,72.5,67.7,30.01,WSW,238,0.0,1.0,85,0.00,,,0.00,VWS V14.01,2013-09-20 02:30:00,
2013-09-19 22:35:00,72.5,67.7,30.02,WSW,238,0.0,1.0,85,0.00,,,0.00,VWS V14.01,2013-09-20 02:35:00,
2013-09-19 22:40:00,72.3,67.9,30.02,WSW,238,0.0,1.0,86,0.00,,,0.00,VWS V14.01,2013-09-20 02:40:00,
2013-09-19 22:45:00,72.1,67.7,30.02,WSW,238,0.0,1.0,86,0.00,,,0.00,VWS V14.01,2013-09-20 02:45:00,
2013-09-19 22:50:00,72.1,67.3,30.01,WSW,238,0.0,1.0,85,0.00,,,0.00,VWS V14.01,2013-09-20 02:50:00,
2013-09-19 22:55:00,72.0,67.2,30.01,WSW,238,0.0,1.0,85,0.00,,,0.00,VWS V14.01,2013-09-20 02:55:00,
2013-09-19 23:00:00,72.0,67.2,30.01,WSW,238,0.0,1.0,85,0.00,,,0.00,VWS V14.01,2013-09-20 03:00:00,
2013-09-19 23:01:00,72.1,66.3,30.02,WSW,238,0.0,1.0,82,0.00,,,0.00,VWS V14.01,2013-09-20 03:01:00,
2013-09-19 23:05:00,72.0,67.2,30.02,WSW,238,0.0,1.0,85,0.00,,,0.00,VWS V14.01,2013-09-20 03:05:00,
2013-09-19 23:06:00,72.1,65.9,30.02,WSW,238,0.0,1.0,81,0.00,,,0.00,VWS V14.01,2013-09-20 03:06:00,
2013-09-19 23:10:00,72.0,66.9,30.02,WSW,238,0.0,1.0,84,0.00,,,0.00,VWS V14.01,2013-09-20 03:10:00,
2013-09-19 23:11:00,72.1,65.9,30.02,WSW,238,0.0,1.0,81,0.00,,,0.00,VWS V14.01,2013-09-20 03:11:00,
2013-09-19 23:15:00,72.0,66.9,30.02,WSW,238,0.0,1.0,84,0.00,,,0.00,VWS V14.01,2013-09-20 03:15:00,
2013-09-19 23:16:00,72.1,65.9,30.02,WSW,238,0.0,1.0,81,0.00,,,0.00,VWS V14.01,2013-09-20 03:16:00,
2013-09-19 23:20:00,72.1,66.7,30.02,WSW,238,0.0,1.0,83,0.00,,,0.00,VWS V14.01,2013-09-20 03:20:00,
2013-09-19 23:21:00,72.0,65.9,30.02,WSW,238,0.0,1.0,81,0.00,,,0.00,VWS V14.01,2013-09-20 03:21:00,
2013-09-19 23:25:00,72.1,66.7,30.02,WSW,238,0.0,1.0,83,0.00,,,0.00,VWS V14.01,2013-09-20 03:25:00,
2013-09-19 23:26:00,72.0,65.9,30.02,WSW,238,0.0,1.0,81,0.00,,,0.00,VWS V14.01,2013-09-20 03:26:00,
2013-09-19 23:30:00,72.1,66.7,30.02,WSW,238,0.0,1.0,83,0.00,,,0.00,VWS V14.01,2013-09-20 03:30:00,
2013-09-19 23:31:00,72.0,65.9,30.02,WSW,238,0.0,1.0,81,0.00,,,0.00,VWS V14.01,2013-09-20 03:31:00,
2013-09-19 23:35:00,72.1,66.7,30.02,WSW,238,0.0,1.0,83,0.00,,,0.00,VWS V14.01,2013-09-20 03:35:00,
2013-09-19 23:36:00,71.8,65.7,30.02,WSW,238,0.0,1.0,81,0.00,,,0.00,VWS V14.01,2013-09-20 03:36:00,
2013-09-19 23:40:00,72.1,66.3,30.02,WSW,238,0.0,1.0,82,0.00,,,0.00,VWS V14.01,2013-09-20 03:40:00,
2013-09-19 23:41:00,71.8,65.7,30.02,WSW,238,0.0,1.0,81,0.00,,,0.00,VWS V14.01,2013-09-20 03:41:00,
2013-09-19 23:45:00,72.1,66.3,30.02,WSW,238,0.0,1.0,82,0.00,,,0.00,VWS V14.01,2013-09-20 03:45:00,
2013-09-19 23:46:00,71.6,65.5,30.02,WSW,238,0.0,1.0,81,0.00,,,0.00,VWS V14.01,2013-09-20 03:46:00,
2013-09-19 23:50:00,72.3,66.5,30.02,WSW,238,0.0,1.0,82,0.00,,,0.00,VWS V14.01,2013-09-20 03:50:00,
2013-09-19 23:51:00,71.6,65.5,30.02,WSW,238,0.0,1.0,81,0.00,,,0.00,VWS V14.01,2013-09-20 03:51:00,
2013-09-19 23:55:00,72.3,66.5,30.02,WSW,238,0.0,1.0,82,0.00,,,0.00,VWS V14.01,2013-09-20 03:55:00,
2013-09-19 23:56:00,71.5,65.4,30.02,WSW,238,0.0,1.0,81,0.00,,,0.00,VWS V14.01,2013-09-20 03:56:00,